sensor_id;sensor_type;location;lat;lon;timestamp;P1;durP1;ratioP1;P2;durP2;ratioP2
61899;SDS011;47853;55.890;37.664;2023-04-25T00:01:47;12.70;;;7.03;;
61899;SDS011;47853;55.890;37.664;2023-04-25T00:04:12;14.87;;;7.13;;
61899;SDS011;47853;55.890;37.664;2023-04-25T00:06:38;16.87;;;8.10;;
61899;SDS011;47853;55.890;37.664;2023-04-25T00:09:03;15.50;;;6.70;;
61899;SDS011;47853;55.890;37.664;2023-04-25T00:11:29;15.70;;;6.60;;
61899;SDS011;47853;55.890;37.664;2023-04-25T00:13:54;21.65;;;7.38;;
61899;SDS011;47853;55.890;37.664;2023-04-25T00:16:19;18.47;;;7.40;;
61899;SDS011;47853;55.890;37.664;2023-04-25T00:18:44;18.35;;;7.28;;
61899;SDS011;47853;55.890;37.664;2023-04-25T00:21:09;17.57;;;7.27;;
61899;SDS011;47853;55.890;37.664;2023-04-25T00:23:35;15.77;;;6.57;;
61899;SDS011;47853;55.890;37.664;2023-04-25T00:26:00;17.43;;;7.30;;
61899;SDS011;47853;55.890;37.664;2023-04-25T00:28:25;21.90;;;7.53;;
61899;SDS011;47853;55.890;37.664;2023-04-25T00:30:50;21.80;;;8.10;;
61899;SDS011;47853;55.890;37.664;2023-04-25T00:33:15;19.07;;;7.77;;
61899;SDS011;47853;55.890;37.664;2023-04-25T00:35:40;17.53;;;6.67;;
61899;SDS011;47853;55.890;37.664;2023-04-25T00:38:06;23.10;;;6.97;;
61899;SDS011;47853;55.890;37.664;2023-04-25T00:40:31;20.33;;;7.67;;
61899;SDS011;47853;55.890;37.664;2023-04-25T00:42:56;20.27;;;7.57;;
61899;SDS011;47853;55.890;37.664;2023-04-25T00:45:21;13.83;;;7.13;;
61899;SDS011;47853;55.890;37.664;2023-04-25T00:47:46;11.60;;;6.47;;
61899;SDS011;47853;55.890;37.664;2023-04-25T00:50:12;21.88;;;6.97;;
61899;SDS011;47853;55.890;37.664;2023-04-25T00:52:41;21.73;;;7.53;;
61899;SDS011;47853;55.890;37.664;2023-04-25T00:55:07;14.15;;;6.53;;
61899;SDS011;47853;55.890;37.664;2023-04-25T00:57:33;14.32;;;7.18;;
61899;SDS011;47853;55.890;37.664;2023-04-25T00:59:58;18.45;;;7.32;;
61899;SDS011;47853;55.890;37.664;2023-04-25T01:02:23;14.45;;;6.32;;
61899;SDS011;47853;55.890;37.664;2023-04-25T01:04:48;18.87;;;7.30;;
61899;SDS011;47853;55.890;37.664;2023-04-25T01:31:48;14.98;;;6.90;;
61899;SDS011;47853;55.890;37.664;2023-04-25T01:34:14;19.48;;;7.15;;
61899;SDS011;47853;55.890;37.664;2023-04-25T01:36:39;18.08;;;6.95;;
61899;SDS011;47853;55.890;37.664;2023-04-25T01:39:04;14.57;;;6.85;;
61899;SDS011;47853;55.890;37.664;2023-04-25T01:41:29;15.10;;;7.30;;
61899;SDS011;47853;55.890;37.664;2023-04-25T01:43:55;18.63;;;7.30;;
61899;SDS011;47853;55.890;37.664;2023-04-25T01:46:20;22.30;;;7.47;;
61899;SDS011;47853;55.890;37.664;2023-04-25T01:48:45;15.00;;;6.70;;
61899;SDS011;47853;55.890;37.664;2023-04-25T01:51:10;22.43;;;6.97;;
61899;SDS011;47853;55.890;37.664;2023-04-25T01:53:36;13.60;;;6.37;;
61899;SDS011;47853;55.890;37.664;2023-04-25T01:56:01;10.50;;;6.30;;
61899;SDS011;47853;55.890;37.664;2023-04-25T01:58:26;12.82;;;6.47;;
61899;SDS011;47853;55.890;37.664;2023-04-25T02:00:51;20.10;;;7.33;;
61899;SDS011;47853;55.890;37.664;2023-04-25T02:03:16;17.25;;;7.18;;
61899;SDS011;47853;55.890;37.664;2023-04-25T02:05:42;19.53;;;7.90;;
61899;SDS011;47853;55.890;37.664;2023-04-25T02:08:07;14.73;;;6.77;;
61899;SDS011;47853;55.890;37.664;2023-04-25T02:10:33;18.70;;;6.65;;
61899;SDS011;47853;55.890;37.664;2023-04-25T02:12:59;12.75;;;6.75;;
61899;SDS011;47853;55.890;37.664;2023-04-25T02:15:24;16.92;;;7.18;;
61899;SDS011;47853;55.890;37.664;2023-04-25T02:17:49;18.42;;;6.40;;
61899;SDS011;47853;55.890;37.664;2023-04-25T02:20:14;11.77;;;6.60;;
61899;SDS011;47853;55.890;37.664;2023-04-25T02:22:39;12.48;;;6.18;;
61899;SDS011;47853;55.890;37.664;2023-04-25T02:25:05;19.90;;;6.80;;
61899;SDS011;47853;55.890;37.664;2023-04-25T02:27:30;15.95;;;6.38;;
61899;SDS011;47853;55.890;37.664;2023-04-25T02:29:55;14.98;;;6.75;;
61899;SDS011;47853;55.890;37.664;2023-04-25T02:32:21;18.50;;;6.17;;
61899;SDS011;47853;55.890;37.664;2023-04-25T02:34:46;17.37;;;6.53;;
61899;SDS011;47853;55.890;37.664;2023-04-25T02:37:12;13.67;;;6.37;;
61899;SDS011;47853;55.890;37.664;2023-04-25T02:39:37;14.50;;;6.70;;
61899;SDS011;47853;55.890;37.664;2023-04-25T02:42:02;22.10;;;6.80;;
61899;SDS011;47853;55.890;37.664;2023-04-25T02:44:27;20.40;;;6.60;;
61899;SDS011;47853;55.890;37.664;2023-04-25T02:46:52;15.90;;;6.67;;
61899;SDS011;47853;55.890;37.664;2023-04-25T02:49:18;14.53;;;6.63;;
61899;SDS011;47853;55.890;37.664;2023-04-25T02:51:43;11.40;;;5.70;;
61899;SDS011;47853;55.890;37.664;2023-04-25T02:54:08;13.07;;;6.23;;
61899;SDS011;47853;55.890;37.664;2023-04-25T02:56:33;13.97;;;6.43;;
61899;SDS011;47853;55.890;37.664;2023-04-25T02:58:58;14.43;;;6.73;;
61899;SDS011;47853;55.890;37.664;2023-04-25T03:01:23;18.50;;;6.63;;
61899;SDS011;47853;55.890;37.664;2023-04-25T03:03:49;15.73;;;6.75;;
61899;SDS011;47853;55.890;37.664;2023-04-25T03:06:14;16.13;;;5.77;;
61899;SDS011;47853;55.890;37.664;2023-04-25T03:08:39;21.70;;;6.80;;
61899;SDS011;47853;55.890;37.664;2023-04-25T03:11:04;16.17;;;7.10;;
61899;SDS011;47853;55.890;37.664;2023-04-25T03:13:29;13.60;;;6.50;;
61899;SDS011;47853;55.890;37.664;2023-04-25T03:15:55;17.83;;;6.77;;
61899;SDS011;47853;55.890;37.664;2023-04-25T03:18:20;15.52;;;5.85;;
61899;SDS011;47853;55.890;37.664;2023-04-25T03:20:45;13.83;;;6.23;;
61899;SDS011;47853;55.890;37.664;2023-04-25T03:23:10;16.33;;;7.37;;
61899;SDS011;47853;55.890;37.664;2023-04-25T03:25:35;19.13;;;7.53;;
61899;SDS011;47853;55.890;37.664;2023-04-25T03:28:01;17.93;;;7.17;;
61899;SDS011;47853;55.890;37.664;2023-04-25T03:30:26;15.93;;;7.90;;
61899;SDS011;47853;55.890;37.664;2023-04-25T03:32:51;16.07;;;7.30;;
61899;SDS011;47853;55.890;37.664;2023-04-25T03:35:16;19.45;;;7.15;;
61899;SDS011;47853;55.890;37.664;2023-04-25T03:37:41;18.20;;;6.77;;
61899;SDS011;47853;55.890;37.664;2023-04-25T03:40:07;17.30;;;7.23;;
61899;SDS011;47853;55.890;37.664;2023-04-25T03:42:32;19.67;;;6.93;;
61899;SDS011;47853;55.890;37.664;2023-04-25T03:44:57;13.27;;;6.93;;
61899;SDS011;47853;55.890;37.664;2023-04-25T03:47:22;22.20;;;7.43;;
61899;SDS011;47853;55.890;37.664;2023-04-25T03:49:47;22.80;;;7.63;;
61899;SDS011;47853;55.890;37.664;2023-04-25T03:52:13;17.27;;;7.43;;
61899;SDS011;47853;55.890;37.664;2023-04-25T03:54:38;18.07;;;7.10;;
61899;SDS011;47853;55.890;37.664;2023-04-25T03:57:03;18.80;;;7.23;;
61899;SDS011;47853;55.890;37.664;2023-04-25T03:59:28;24.37;;;6.73;;
61899;SDS011;47853;55.890;37.664;2023-04-25T04:01:54;23.63;;;7.70;;
61899;SDS011;47853;55.890;37.664;2023-04-25T04:04:19;18.92;;;8.57;;
61899;SDS011;47853;55.890;37.664;2023-04-25T04:06:44;18.70;;;7.67;;
61899;SDS011;47853;55.890;37.664;2023-04-25T04:09:09;20.93;;;8.70;;
61899;SDS011;47853;55.890;37.664;2023-04-25T04:11:34;15.03;;;7.10;;
61899;SDS011;47853;55.890;37.664;2023-04-25T04:14:00;17.37;;;7.70;;
61899;SDS011;47853;55.890;37.664;2023-04-25T04:16:25;17.93;;;7.90;;
61899;SDS011;47853;55.890;37.664;2023-04-25T04:18:50;14.77;;;7.77;;
61899;SDS011;47853;55.890;37.664;2023-04-25T04:21:15;17.97;;;8.37;;
61899;SDS011;47853;55.890;37.664;2023-04-25T04:23:43;19.43;;;7.40;;
61899;SDS011;47853;55.890;37.664;2023-04-25T04:26:08;18.20;;;8.32;;
61899;SDS011;47853;55.890;37.664;2023-04-25T04:28:34;19.88;;;8.32;;
61899;SDS011;47853;55.890;37.664;2023-04-25T04:30:59;20.13;;;9.00;;
61899;SDS011;47853;55.890;37.664;2023-04-25T04:33:24;22.17;;;7.90;;
61899;SDS011;47853;55.890;37.664;2023-04-25T04:35:50;19.43;;;8.33;;
61899;SDS011;47853;55.890;37.664;2023-04-25T04:38:15;17.00;;;8.45;;
61899;SDS011;47853;55.890;37.664;2023-04-25T04:40:41;30.73;;;9.47;;
61899;SDS011;47853;55.890;37.664;2023-04-25T04:43:06;22.00;;;9.68;;
61899;SDS011;47853;55.890;37.664;2023-04-25T04:45:31;26.43;;;9.47;;
61899;SDS011;47853;55.890;37.664;2023-04-25T04:47:56;17.03;;;7.93;;
61899;SDS011;47853;55.890;37.664;2023-04-25T04:50:21;21.90;;;8.33;;
61899;SDS011;47853;55.890;37.664;2023-04-25T04:52:46;17.87;;;8.17;;
61899;SDS011;47853;55.890;37.664;2023-04-25T04:55:12;16.40;;;8.87;;
61899;SDS011;47853;55.890;37.664;2023-04-25T04:57:37;22.20;;;9.43;;
61899;SDS011;47853;55.890;37.664;2023-04-25T05:00:02;21.30;;;9.23;;
61899;SDS011;47853;55.890;37.664;2023-04-25T05:02:27;14.48;;;7.93;;
61899;SDS011;47853;55.890;37.664;2023-04-25T05:04:53;20.00;;;8.60;;
61899;SDS011;47853;55.890;37.664;2023-04-25T05:07:18;25.20;;;10.93;;
61899;SDS011;47853;55.890;37.664;2023-04-25T05:09:43;16.13;;;9.93;;
61899;SDS011;47853;55.890;37.664;2023-04-25T05:12:08;22.48;;;8.27;;
61899;SDS011;47853;55.890;37.664;2023-04-25T05:14:34;26.02;;;8.82;;
61899;SDS011;47853;55.890;37.664;2023-04-25T05:16:59;21.20;;;9.30;;
61899;SDS011;47853;55.890;37.664;2023-04-25T05:19:24;26.87;;;9.60;;
61899;SDS011;47853;55.890;37.664;2023-04-25T05:21:49;16.08;;;7.75;;
61899;SDS011;47853;55.890;37.664;2023-04-25T05:24:14;20.23;;;7.93;;
61899;SDS011;47853;55.890;37.664;2023-04-25T05:26:40;12.33;;;7.43;;
61899;SDS011;47853;55.890;37.664;2023-04-25T05:29:05;16.53;;;7.60;;
61899;SDS011;47853;55.890;37.664;2023-04-25T05:31:30;15.80;;;7.07;;
61899;SDS011;47853;55.890;37.664;2023-04-25T05:33:55;19.53;;;7.70;;
61899;SDS011;47853;55.890;37.664;2023-04-25T05:36:20;19.07;;;7.23;;
61899;SDS011;47853;55.890;37.664;2023-04-25T05:38:45;21.02;;;7.25;;
61899;SDS011;47853;55.890;37.664;2023-04-25T05:41:11;15.95;;;6.75;;
61899;SDS011;47853;55.890;37.664;2023-04-25T05:43:36;18.93;;;7.87;;
61899;SDS011;47853;55.890;37.664;2023-04-25T05:46:01;13.75;;;6.88;;
61899;SDS011;47853;55.890;37.664;2023-04-25T05:48:26;14.37;;;6.63;;
61899;SDS011;47853;55.890;37.664;2023-04-25T05:50:52;17.95;;;6.75;;
61899;SDS011;47853;55.890;37.664;2023-04-25T05:53:17;12.03;;;5.83;;
61899;SDS011;47853;55.890;37.664;2023-04-25T05:55:49;17.05;;;6.53;;
61899;SDS011;47853;55.890;37.664;2023-04-25T05:58:15;16.85;;;6.07;;
61899;SDS011;47853;55.890;37.664;2023-04-25T06:00:40;21.13;;;6.60;;
61899;SDS011;47853;55.890;37.664;2023-04-25T06:03:05;9.77;;;6.33;;
61899;SDS011;47853;55.890;37.664;2023-04-25T06:05:30;16.87;;;6.47;;
61899;SDS011;47853;55.890;37.664;2023-04-25T06:07:55;15.17;;;5.73;;
61899;SDS011;47853;55.890;37.664;2023-04-25T06:10:21;19.53;;;6.73;;
61899;SDS011;47853;55.890;37.664;2023-04-25T06:12:46;18.42;;;6.43;;
61899;SDS011;47853;55.890;37.664;2023-04-25T06:15:11;15.90;;;6.50;;
61899;SDS011;47853;55.890;37.664;2023-04-25T06:17:39;13.30;;;5.60;;
61899;SDS011;47853;55.890;37.664;2023-04-25T06:20:05;9.63;;;5.30;;
61899;SDS011;47853;55.890;37.664;2023-04-25T06:22:30;13.10;;;5.30;;
61899;SDS011;47853;55.890;37.664;2023-04-25T06:24:55;11.53;;;5.87;;
61899;SDS011;47853;55.890;37.664;2023-04-25T06:27:21;12.80;;;4.53;;
61899;SDS011;47853;55.890;37.664;2023-04-25T06:29:46;12.50;;;5.40;;
61899;SDS011;47853;55.890;37.664;2023-04-25T06:32:11;15.27;;;6.37;;
61899;SDS011;47853;55.890;37.664;2023-04-25T06:34:36;12.40;;;5.80;;
61899;SDS011;47853;55.890;37.664;2023-04-25T06:37:02;13.18;;;5.00;;
61899;SDS011;47853;55.890;37.664;2023-04-25T06:39:27;9.20;;;4.90;;
61899;SDS011;47853;55.890;37.664;2023-04-25T06:41:52;12.97;;;4.80;;
61899;SDS011;47853;55.890;37.664;2023-04-25T06:44:17;13.67;;;5.33;;
61899;SDS011;47853;55.890;37.664;2023-04-25T06:46:42;13.13;;;4.90;;
61899;SDS011;47853;55.890;37.664;2023-04-25T06:49:07;11.23;;;5.57;;
61899;SDS011;47853;55.890;37.664;2023-04-25T06:51:33;15.57;;;5.23;;
61899;SDS011;47853;55.890;37.664;2023-04-25T06:53:58;18.17;;;5.60;;
61899;SDS011;47853;55.890;37.664;2023-04-25T06:56:23;12.52;;;5.45;;
61899;SDS011;47853;55.890;37.664;2023-04-25T06:58:49;9.77;;;5.07;;
61899;SDS011;47853;55.890;37.664;2023-04-25T07:01:14;20.38;;;9.63;;
61899;SDS011;47853;55.890;37.664;2023-04-25T07:03:39;12.67;;;4.33;;
61899;SDS011;47853;55.890;37.664;2023-04-25T07:06:04;15.67;;;4.80;;
61899;SDS011;47853;55.890;37.664;2023-04-25T07:08:29;10.07;;;3.95;;
61899;SDS011;47853;55.890;37.664;2023-04-25T07:10:55;15.13;;;5.27;;
61899;SDS011;47853;55.890;37.664;2023-04-25T07:13:20;10.97;;;3.83;;
61899;SDS011;47853;55.890;37.664;2023-04-25T07:15:45;11.47;;;4.63;;
61899;SDS011;47853;55.890;37.664;2023-04-25T07:18:10;11.23;;;4.13;;
61899;SDS011;47853;55.890;37.664;2023-04-25T07:20:35;11.80;;;4.47;;
61899;SDS011;47853;55.890;37.664;2023-04-25T07:23:01;7.83;;;4.00;;
61899;SDS011;47853;55.890;37.664;2023-04-25T07:25:26;13.97;;;5.07;;
61899;SDS011;47853;55.890;37.664;2023-04-25T07:27:51;11.97;;;4.97;;
61899;SDS011;47853;55.890;37.664;2023-04-25T07:30:16;9.97;;;4.40;;
61899;SDS011;47853;55.890;37.664;2023-04-25T07:32:41;10.87;;;5.80;;
61899;SDS011;47853;55.890;37.664;2023-04-25T07:35:07;10.97;;;4.73;;
61899;SDS011;47853;55.890;37.664;2023-04-25T07:37:32;11.52;;;4.80;;
61899;SDS011;47853;55.890;37.664;2023-04-25T07:39:57;11.02;;;4.32;;
61899;SDS011;47853;55.890;37.664;2023-04-25T07:42:23;19.77;;;9.93;;
61899;SDS011;47853;55.890;37.664;2023-04-25T07:44:48;7.97;;;5.57;;
61899;SDS011;47853;55.890;37.664;2023-04-25T07:47:13;12.60;;;3.67;;
61899;SDS011;47853;55.890;37.664;2023-04-25T07:49:38;10.00;;;3.47;;
61899;SDS011;47853;55.890;37.664;2023-04-25T07:52:04;10.35;;;4.00;;
61899;SDS011;47853;55.890;37.664;2023-04-25T07:54:29;9.95;;;3.50;;
61899;SDS011;47853;55.890;37.664;2023-04-25T07:56:55;10.67;;;3.80;;
61899;SDS011;47853;55.890;37.664;2023-04-25T07:59:20;11.32;;;3.75;;
61899;SDS011;47853;55.890;37.664;2023-04-25T08:01:45;12.37;;;4.77;;
61899;SDS011;47853;55.890;37.664;2023-04-25T08:04:10;12.35;;;3.97;;
61899;SDS011;47853;55.890;37.664;2023-04-25T08:06:35;10.77;;;3.20;;
61899;SDS011;47853;55.890;37.664;2023-04-25T08:09:01;7.80;;;3.50;;
61899;SDS011;47853;55.890;37.664;2023-04-25T08:11:26;13.88;;;3.70;;
61899;SDS011;47853;55.890;37.664;2023-04-25T08:13:51;6.03;;;4.10;;
61899;SDS011;47853;55.890;37.664;2023-04-25T08:16:16;7.40;;;3.47;;
61899;SDS011;47853;55.890;37.664;2023-04-25T08:18:41;6.17;;;3.20;;
61899;SDS011;47853;55.890;37.664;2023-04-25T08:21:07;11.50;;;3.57;;
61899;SDS011;47853;55.890;37.664;2023-04-25T08:23:32;21.27;;;4.50;;
61899;SDS011;47853;55.890;37.664;2023-04-25T08:25:57;13.17;;;3.97;;
61899;SDS011;47853;55.890;37.664;2023-04-25T08:28:22;10.23;;;3.90;;
61899;SDS011;47853;55.890;37.664;2023-04-25T08:30:47;9.67;;;4.00;;
61899;SDS011;47853;55.890;37.664;2023-04-25T08:33:13;9.43;;;4.10;;
61899;SDS011;47853;55.890;37.664;2023-04-25T08:35:38;10.83;;;4.50;;
61899;SDS011;47853;55.890;37.664;2023-04-25T08:38:03;12.07;;;4.27;;
61899;SDS011;47853;55.890;37.664;2023-04-25T08:40:28;8.27;;;3.40;;
61899;SDS011;47853;55.890;37.664;2023-04-25T08:42:53;8.13;;;3.67;;
61899;SDS011;47853;55.890;37.664;2023-04-25T08:45:18;7.40;;;3.90;;
61899;SDS011;47853;55.890;37.664;2023-04-25T08:47:44;6.25;;;3.25;;
61899;SDS011;47853;55.890;37.664;2023-04-25T08:50:10;8.68;;;3.42;;
61899;SDS011;47853;55.890;37.664;2023-04-25T08:52:36;6.60;;;3.83;;
61899;SDS011;47853;55.890;37.664;2023-04-25T08:55:01;11.40;;;3.40;;
61899;SDS011;47853;55.890;37.664;2023-04-25T08:57:27;6.47;;;4.00;;
61899;SDS011;47853;55.890;37.664;2023-04-25T08:59:53;11.02;;;3.70;;
61899;SDS011;47853;55.890;37.664;2023-04-25T09:02:19;13.25;;;3.20;;
61899;SDS011;47853;55.890;37.664;2023-04-25T09:04:44;31.87;;;23.90;;
61899;SDS011;47853;55.890;37.664;2023-04-25T09:07:09;14.63;;;4.23;;
61899;SDS011;47853;55.890;37.664;2023-04-25T09:09:34;9.77;;;3.83;;
61899;SDS011;47853;55.890;37.664;2023-04-25T09:11:59;7.65;;;3.67;;
61899;SDS011;47853;55.890;37.664;2023-04-25T09:14:25;12.60;;;8.25;;
61899;SDS011;47853;55.890;37.664;2023-04-25T09:19:25;7.18;;;3.08;;
61899;SDS011;47853;55.890;37.664;2023-04-25T09:21:51;5.35;;;2.85;;
61899;SDS011;47853;55.890;37.664;2023-04-25T09:26:55;6.80;;;4.05;;
61899;SDS011;47853;55.890;37.664;2023-04-25T09:29:20;4.17;;;2.53;;
61899;SDS011;47853;55.890;37.664;2023-04-25T09:31:53;5.00;;;2.90;;
61899;SDS011;47853;55.890;37.664;2023-04-25T09:34:38;8.55;;;3.25;;
61899;SDS011;47853;55.890;37.664;2023-04-25T09:37:03;12.38;;;3.40;;
61899;SDS011;47853;55.890;37.664;2023-04-25T09:39:29;5.37;;;2.60;;
61899;SDS011;47853;55.890;37.664;2023-04-25T09:41:54;6.83;;;3.43;;
61899;SDS011;47853;55.890;37.664;2023-04-25T09:44:22;7.07;;;2.97;;
61899;SDS011;47853;55.890;37.664;2023-04-25T09:46:49;11.10;;;3.40;;
61899;SDS011;47853;55.890;37.664;2023-04-25T09:49:14;6.30;;;3.58;;
61899;SDS011;47853;55.890;37.664;2023-04-25T09:51:47;11.38;;;5.47;;
61899;SDS011;47853;55.890;37.664;2023-04-25T09:54:18;8.57;;;3.72;;
61899;SDS011;47853;55.890;37.664;2023-04-25T09:56:43;10.47;;;3.50;;
61899;SDS011;47853;55.890;37.664;2023-04-25T09:59:09;9.57;;;3.90;;
61899;SDS011;47853;55.890;37.664;2023-04-25T10:01:34;7.15;;;3.58;;
61899;SDS011;47853;55.890;37.664;2023-04-25T10:03:59;6.00;;;2.85;;
61899;SDS011;47853;55.890;37.664;2023-04-25T10:06:26;5.72;;;3.03;;
61899;SDS011;47853;55.890;37.664;2023-04-25T10:08:52;4.82;;;2.50;;
61899;SDS011;47853;55.890;37.664;2023-04-25T10:11:17;3.13;;;2.20;;
61899;SDS011;47853;55.890;37.664;2023-04-25T10:13:43;5.50;;;2.20;;
61899;SDS011;47853;55.890;37.664;2023-04-25T10:16:08;6.00;;;2.50;;
61899;SDS011;47853;55.890;37.664;2023-04-25T10:18:33;3.72;;;2.60;;
61899;SDS011;47853;55.890;37.664;2023-04-25T10:20:59;9.93;;;2.47;;
61899;SDS011;47853;55.890;37.664;2023-04-25T10:23:25;4.47;;;2.60;;
61899;SDS011;47853;55.890;37.664;2023-04-25T10:25:50;4.47;;;2.10;;
61899;SDS011;47853;55.890;37.664;2023-04-25T10:28:16;3.70;;;1.98;;
61899;SDS011;47853;55.890;37.664;2023-04-25T10:31:03;3.30;;;2.03;;
61899;SDS011;47853;55.890;37.664;2023-04-25T10:33:35;4.43;;;2.10;;
61899;SDS011;47853;55.890;37.664;2023-04-25T10:36:22;10.67;;;2.20;;
61899;SDS011;47853;55.890;37.664;2023-04-25T10:38:47;5.65;;;3.03;;
61899;SDS011;47853;55.890;37.664;2023-04-25T10:41:13;5.97;;;2.33;;
61899;SDS011;47853;55.890;37.664;2023-04-25T10:46:16;3.80;;;2.30;;
61899;SDS011;47853;55.890;37.664;2023-04-25T10:48:46;7.18;;;1.98;;
61899;SDS011;47853;55.890;37.664;2023-04-25T10:51:15;5.15;;;2.33;;
61899;SDS011;47853;55.890;37.664;2023-04-25T10:53:40;6.30;;;1.90;;
61899;SDS011;47853;55.890;37.664;2023-04-25T10:56:48;5.77;;;2.50;;
61899;SDS011;47853;55.890;37.664;2023-04-25T11:01:28;5.40;;;2.15;;
61899;SDS011;47853;55.890;37.664;2023-04-25T11:04:00;5.88;;;2.80;;
61899;SDS011;47853;55.890;37.664;2023-04-25T11:08:50;4.65;;;2.50;;
61899;SDS011;47853;55.890;37.664;2023-04-25T11:11:19;8.32;;;2.35;;
61899;SDS011;47853;55.890;37.664;2023-04-25T11:13:44;6.63;;;2.72;;
61899;SDS011;47853;55.890;37.664;2023-04-25T11:16:09;4.85;;;2.10;;
61899;SDS011;47853;55.890;37.664;2023-04-25T11:18:34;2.23;;;1.90;;
61899;SDS011;47853;55.890;37.664;2023-04-25T11:20:59;8.17;;;2.03;;
61899;SDS011;47853;55.890;37.664;2023-04-25T11:23:25;3.10;;;2.17;;
61899;SDS011;47853;55.890;37.664;2023-04-25T11:25:50;4.32;;;2.38;;
61899;SDS011;47853;55.890;37.664;2023-04-25T11:28:20;5.75;;;2.10;;
61899;SDS011;47853;55.890;37.664;2023-04-25T11:30:48;4.32;;;2.28;;
61899;SDS011;47853;55.890;37.664;2023-04-25T11:33:13;3.42;;;2.28;;
61899;SDS011;47853;55.890;37.664;2023-04-25T11:35:40;6.97;;;2.47;;
61899;SDS011;47853;55.890;37.664;2023-04-25T11:38:05;3.90;;;3.28;;
61899;SDS011;47853;55.890;37.664;2023-04-25T11:40:30;6.83;;;2.57;;
61899;SDS011;47853;55.890;37.664;2023-04-25T11:42:55;5.23;;;2.50;;
61899;SDS011;47853;55.890;37.664;2023-04-25T11:45:21;8.70;;;2.40;;
61899;SDS011;47853;55.890;37.664;2023-04-25T11:47:47;6.10;;;2.40;;
61899;SDS011;47853;55.890;37.664;2023-04-25T11:50:14;5.35;;;2.70;;
61899;SDS011;47853;55.890;37.664;2023-04-25T11:52:43;6.40;;;2.43;;
61899;SDS011;47853;55.890;37.664;2023-04-25T11:55:18;6.82;;;2.42;;
61899;SDS011;47853;55.890;37.664;2023-04-25T11:57:47;7.95;;;2.50;;
61899;SDS011;47853;55.890;37.664;2023-04-25T12:00:14;4.57;;;3.05;;
61899;SDS011;47853;55.890;37.664;2023-04-25T12:02:40;7.80;;;4.30;;
61899;SDS011;47853;55.890;37.664;2023-04-25T12:05:06;5.50;;;2.55;;
61899;SDS011;47853;55.890;37.664;2023-04-25T12:07:31;6.15;;;2.30;;
61899;SDS011;47853;55.890;37.664;2023-04-25T12:09:57;7.53;;;3.07;;
61899;SDS011;47853;55.890;37.664;2023-04-25T12:12:22;5.87;;;2.37;;
61899;SDS011;47853;55.890;37.664;2023-04-25T12:14:51;4.75;;;2.80;;
61899;SDS011;47853;55.890;37.664;2023-04-25T12:17:17;9.40;;;2.43;;
61899;SDS011;47853;55.890;37.664;2023-04-25T12:19:42;8.53;;;2.43;;
61899;SDS011;47853;55.890;37.664;2023-04-25T12:22:20;6.23;;;2.47;;
61899;SDS011;47853;55.890;37.664;2023-04-25T12:24:45;4.95;;;2.13;;
61899;SDS011;47853;55.890;37.664;2023-04-25T12:27:10;7.37;;;2.77;;
61899;SDS011;47853;55.890;37.664;2023-04-25T12:29:35;6.13;;;5.27;;
61899;SDS011;47853;55.890;37.664;2023-04-25T12:32:00;2.67;;;2.20;;
61899;SDS011;47853;55.890;37.664;2023-04-25T12:34:26;5.70;;;2.33;;
61899;SDS011;47853;55.890;37.664;2023-04-25T12:36:51;4.37;;;2.30;;
61899;SDS011;47853;55.890;37.664;2023-04-25T12:39:17;4.82;;;2.35;;
61899;SDS011;47853;55.890;37.664;2023-04-25T12:41:43;5.28;;;2.40;;
61899;SDS011;47853;55.890;37.664;2023-04-25T12:44:08;5.03;;;2.28;;
61899;SDS011;47853;55.890;37.664;2023-04-25T12:46:33;3.87;;;2.20;;
61899;SDS011;47853;55.890;37.664;2023-04-25T12:48:58;5.63;;;2.83;;
61899;SDS011;47853;55.890;37.664;2023-04-25T12:51:24;6.20;;;2.80;;
61899;SDS011;47853;55.890;37.664;2023-04-25T12:53:49;5.63;;;2.60;;
61899;SDS011;47853;55.890;37.664;2023-04-25T12:56:14;4.88;;;2.05;;
61899;SDS011;47853;55.890;37.664;2023-04-25T12:58:39;4.60;;;2.30;;
61899;SDS011;47853;55.890;37.664;2023-04-25T13:01:04;5.17;;;2.67;;
61899;SDS011;47853;55.890;37.664;2023-04-25T13:03:29;3.87;;;2.37;;
61899;SDS011;47853;55.890;37.664;2023-04-25T13:05:55;6.80;;;2.70;;
61899;SDS011;47853;55.890;37.664;2023-04-25T13:08:20;8.80;;;2.73;;
61899;SDS011;47853;55.890;37.664;2023-04-25T13:10:45;4.33;;;2.50;;
61899;SDS011;47853;55.890;37.664;2023-04-25T13:13:10;11.43;;;3.13;;
61899;SDS011;47853;55.890;37.664;2023-04-25T13:15:35;8.80;;;3.40;;
61899;SDS011;47853;55.890;37.664;2023-04-25T13:18:01;12.20;;;3.20;;
61899;SDS011;47853;55.890;37.664;2023-04-25T13:20:26;10.33;;;3.57;;
61899;SDS011;47853;55.890;37.664;2023-04-25T13:22:51;10.80;;;3.13;;
61899;SDS011;47853;55.890;37.664;2023-04-25T13:25:16;5.53;;;3.20;;
61899;SDS011;47853;55.890;37.664;2023-04-25T13:27:41;10.10;;;3.60;;
61899;SDS011;47853;55.890;37.664;2023-04-25T13:30:07;4.97;;;3.00;;
61899;SDS011;47853;55.890;37.664;2023-04-25T13:32:35;10.43;;;3.28;;
61899;SDS011;47853;55.890;37.664;2023-04-25T13:35:01;5.50;;;3.70;;
61899;SDS011;47853;55.890;37.664;2023-04-25T13:37:26;7.60;;;3.17;;
61899;SDS011;47853;55.890;37.664;2023-04-25T13:39:51;4.63;;;3.40;;
61899;SDS011;47853;55.890;37.664;2023-04-25T13:42:17;7.63;;;2.87;;
61899;SDS011;47853;55.890;37.664;2023-04-25T13:44:42;3.83;;;2.43;;
61899;SDS011;47853;55.890;37.664;2023-04-25T13:47:07;8.03;;;3.50;;
61899;SDS011;47853;55.890;37.664;2023-04-25T13:49:32;6.90;;;3.53;;
61899;SDS011;47853;55.890;37.664;2023-04-25T13:51:57;4.67;;;3.30;;
61899;SDS011;47853;55.890;37.664;2023-04-25T13:54:22;3.20;;;2.90;;
61899;SDS011;47853;55.890;37.664;2023-04-25T13:56:48;7.17;;;2.97;;
61899;SDS011;47853;55.890;37.664;2023-04-25T13:59:14;5.78;;;2.97;;
61899;SDS011;47853;55.890;37.664;2023-04-25T14:01:39;7.20;;;3.13;;
61899;SDS011;47853;55.890;37.664;2023-04-25T14:04:04;4.20;;;2.57;;
61899;SDS011;47853;55.890;37.664;2023-04-25T14:06:29;7.57;;;3.00;;
61899;SDS011;47853;55.890;37.664;2023-04-25T14:08:55;6.17;;;2.80;;
61899;SDS011;47853;55.890;37.664;2023-04-25T14:11:20;3.80;;;3.35;;
61899;SDS011;47853;55.890;37.664;2023-04-25T14:13:45;6.13;;;3.27;;
61899;SDS011;47853;55.890;37.664;2023-04-25T14:16:11;8.87;;;3.33;;
61899;SDS011;47853;55.890;37.664;2023-04-25T14:18:36;7.68;;;2.95;;
61899;SDS011;47853;55.890;37.664;2023-04-25T14:21:01;5.77;;;3.30;;
61899;SDS011;47853;55.890;37.664;2023-04-25T14:23:26;8.23;;;2.80;;
61899;SDS011;47853;55.890;37.664;2023-04-25T14:25:51;3.67;;;3.00;;
61899;SDS011;47853;55.890;37.664;2023-04-25T14:28:17;4.73;;;3.03;;
61899;SDS011;47853;55.890;37.664;2023-04-25T14:30:42;5.33;;;3.07;;
61899;SDS011;47853;55.890;37.664;2023-04-25T14:33:07;6.33;;;3.03;;
61899;SDS011;47853;55.890;37.664;2023-04-25T14:35:32;6.63;;;3.40;;
61899;SDS011;47853;55.890;37.664;2023-04-25T14:37:57;5.50;;;2.90;;
61899;SDS011;47853;55.890;37.664;2023-04-25T14:40:22;7.07;;;3.37;;
61899;SDS011;47853;55.890;37.664;2023-04-25T14:42:48;6.83;;;5.13;;
61899;SDS011;47853;55.890;37.664;2023-04-25T14:45:13;6.90;;;3.35;;
61899;SDS011;47853;55.890;37.664;2023-04-25T14:47:38;7.20;;;3.17;;
61899;SDS011;47853;55.890;37.664;2023-04-25T14:50:04;5.40;;;3.37;;
61899;SDS011;47853;55.890;37.664;2023-04-25T14:52:29;3.72;;;3.25;;
61899;SDS011;47853;55.890;37.664;2023-04-25T14:54:55;3.57;;;3.20;;